Time;durP1;ratioP1;P1;durP2;ratioP2;P2;SDS_P1;SDS_P2;PMS_P1;PMS_P2;Temp;Humidity;BMP_temperature;BMP_pressure;BME280_temperature;BME280_humidity;BME280_pressure;Samples;Min_cycle;Max_cycle;Signal;HPM_P1;HPM_P2
2023/06/07 00:01:45;;;;;;;;;;;;;;;18.78;58.64;101093.94;5072591;28;4770;-73
2023/06/07 00:04:39;;;;;;;;;;;;;;;18.39;58.48;101040.41;5073742;28;3911;-74
2023/06/07 00:07:32;;;;;;;;;;;;;;;18.75;58.53;101097.19;5076980;28;2302;-75
2023/06/07 00:10:24;;;;;;;;;;;;;;;18.73;58.42;101097.44;5076148;28;2129;-74
2023/06/07 00:13:15;;;;;;;;;;;;;;;18.72;58.23;101103.13;5085065;28;1804;-74
2023/06/07 00:16:07;;;;;;;;;;;;;;;18.70;58.14;101091.66;5088825;28;1374;-73
2023/06/07 00:19:01;;;;;;;;;;;;;;;18.69;58.21;101095.47;5085904;28;2064;-73
2023/06/07 00:21:52;;;;;;;;;;;;;;;18.67;58.48;101095.72;5092212;28;1041;-73
2023/06/07 00:24:44;;;;;;;;;;;;;;;18.65;58.17;101092.44;5085384;28;2096;-74
2023/06/07 00:27:36;;;;;;;;;;;;;;;18.65;58.39;101099.78;5076791;28;1467;-74
2023/06/07 00:30:28;;;;;;;;;;;;;;;18.63;58.13;101094.59;5082414;28;2151;-75
2023/06/07 00:33:19;;;;;;;;;;;;;;;18.62;58.59;101103.88;5080231;28;2234;-74
2023/06/07 00:36:12;;;;;;;;;;;;;;;18.59;58.29;101101.66;5079524;28;1457;-73
2023/06/07 00:39:03;;;;;;;;;;;;;;;18.59;58.10;101112.59;5080042;28;1965;-73
2023/06/07 00:41:56;;;;;;;;;;;;;;;18.57;58.11;101109.28;5077814;28;2078;-73
2023/06/07 00:44:47;;;;;;;;;;;;;;;18.56;58.34;101113.06;5081442;28;2306;-74
2023/06/07 00:47:39;;;;;;;;;;;;;;;18.54;58.17;101118.81;5078683;28;1975;-74
2023/06/07 00:50:32;;;;;;;;;;;;;;;18.52;58.20;101114.69;5077276;28;1414;-73
2023/06/07 00:53:24;;;;;;;;;;;;;;;18.51;58.23;101113.88;5077547;28;1348;-74
2023/06/07 00:56:16;;;;;;;;;;;;;;;18.50;58.04;101114.09;5082639;28;2210;-74
2023/06/07 00:59:07;;;;;;;;;;;;;;;18.48;58.17;101125.28;5089256;28;3673;-73
2023/06/07 01:02:01;;;;;;;;;;;;;;;18.47;58.04;101129.13;5085088;28;3543;-74
2023/06/07 01:04:55;;;;;;;;;;;;;;;18.46;58.00;101134.81;5079696;28;2621;-74
2023/06/07 01:07:47;;;;;;;;;;;;;;;18.44;58.31;101129.59;5076701;28;4864;-73
2023/06/07 01:10:39;;;;;;;;;;;;;;;18.43;57.90;101135.31;5084851;28;1529;-74
2023/06/07 01:13:30;;;;;;;;;;;;;;;18.41;57.98;101132.03;5088111;28;3750;-73
2023/06/07 01:16:21;;;;;;;;;;;;;;;18.39;58.09;101146.75;5080574;28;2027;-75
2023/06/07 01:19:13;;;;;;;;;;;;;;;18.39;57.93;101140.47;5075570;28;1925;-75
2023/06/07 01:22:05;;;;;;;;;;;;;;;18.37;58.05;101145.34;5078529;28;1450;-73
2023/06/07 01:25:00;;;;;;;;;;;;;;;18.35;58.08;101140.19;5074549;28;3657;-74
2023/06/07 01:27:52;;;;;;;;;;;;;;;18.34;58.13;101143.16;5076631;28;1956;-74
2023/06/07 01:30:43;;;;;;;;;;;;;;;18.33;57.88;101150.50;5073842;28;1490;-74
2023/06/07 01:33:35;;;;;;;;;;;;;;;18.31;57.90;101149.13;5077305;28;1502;-73
2023/06/07 01:36:26;;;;;;;;;;;;;;;18.30;57.87;101147.47;5075264;28;2214;-74
2023/06/07 01:39:19;;;;;;;;;;;;;;;18.28;57.79;101155.91;5073508;28;1902;-74
2023/06/07 01:42:11;;;;;;;;;;;;;;;18.27;57.97;101151.53;5071676;28;2014;-72
2023/06/07 01:45:02;;;;;;;;;;;;;;;18.25;57.58;101156.41;5076619;28;1688;-75
2023/06/07 01:47:55;;;;;;;;;;;;;;;18.24;57.67;101160.22;5078270;28;2058;-74
2023/06/07 01:50:47;;;;;;;;;;;;;;;18.23;57.77;101157.75;5077397;28;1453;-74
2023/06/07 01:53:38;;;;;;;;;;;;;;;18.22;57.85;101156.09;5076501;28;1361;-75
2023/06/07 01:56:31;;;;;;;;;;;;;;;18.21;57.66;101157.19;5075267;28;1937;-75
2023/06/07 01:59:23;;;;;;;;;;;;;;;18.19;57.81;101152.00;5084826;28;2074;-74
2023/06/07 02:02:15;;;;;;;;;;;;;;;18.16;57.86;101150.59;5083010;28;2273;-75
2023/06/07 02:05:07;;;;;;;;;;;;;;;18.15;57.77;101148.13;5073984;28;2050;-73
2023/06/07 02:07:59;;;;;;;;;;;;;;;18.14;57.65;101152.75;5075697;28;1423;-75
2023/06/07 02:10:51;;;;;;;;;;;;;;;18.12;57.55;101149.47;5073444;28;4732;-72
2023/06/07 02:13:43;;;;;;;;;;;;;;;18.11;57.62;101155.16;5077845;28;4519;-74
2023/06/07 02:16:35;;;;;;;;;;;;;;;18.08;57.60;101151.03;5075244;28;3639;-73
2023/06/07 02:19:27;;;;;;;;;;;;;;;18.09;57.48;101157.34;5074583;28;2021;-74
2023/06/07 02:22:19;;;;;;;;;;;;;;;18.07;57.50;101154.84;5079191;28;1390;-74
2023/06/07 02:25:11;;;;;;;;;;;;;;;18.04;57.34;101158.09;5081083;28;2016;-73
2023/06/07 02:28:03;;;;;;;;;;;;;;;18.03;57.53;101152.88;5071132;28;1639;-73
2023/06/07 02:30:55;;;;;;;;;;;;;;;18.02;57.46;101159.41;5068571;28;3707;-73
2023/06/07 02:33:47;;;;;;;;;;;;;;;18.00;57.40;101156.97;5079847;28;1588;-74
2023/06/07 02:36:40;;;;;;;;;;;;;;;17.99;57.47;101158.03;5075253;28;1924;-74
2023/06/07 02:39:32;;;;;;;;;;;;;;;17.98;57.25;101167.28;5071916;28;1907;-75
2023/06/07 02:42:24;;;;;;;;;;;;;;;17.97;57.45;101159.34;5074913;28;1573;-75
2023/06/07 02:45:16;;;;;;;;;;;;;;;17.96;57.34;101160.44;5073529;28;1940;-74
2023/06/07 02:48:08;;;;;;;;;;;;;;;17.93;57.32;101154.41;5072395;28;2385;-74
2023/06/07 02:51:00;;;;;;;;;;;;;;;17.93;57.32;101162.59;5074009;28;1500;-75
2023/06/07 02:53:53;;;;;;;;;;;;;;;17.91;57.25;101164.75;5075709;28;1917;-74
2023/06/07 02:56:45;;;;;;;;;;;;;;;17.90;57.37;101163.09;5076161;28;1491;-73
2023/06/07 02:59:39;;;;;;;;;;;;;;;17.88;57.25;101173.44;5070793;28;1902;-74
2023/06/07 03:02:31;;;;;;;;;;;;;;;17.88;57.12;101159.81;5071239;28;2501;-74
2023/06/07 03:05:26;;;;;;;;;;;;;;;17.85;57.41;101165.78;5078212;28;2145;-75
2023/06/07 03:08:17;;;;;;;;;;;;;;;17.84;57.26;101172.28;5072955;28;1501;-74
2023/06/07 03:11:09;;;;;;;;;;;;;;;17.83;57.37;101172.56;5074301;28;1451;-75
2023/06/07 03:14:00;;;;;;;;;;;;;;;17.81;57.31;101170.06;5071277;28;2202;-73
2023/06/07 03:16:54;;;;;;;;;;;;;;;17.82;57.27;101168.16;5070257;28;4704;-73
2023/06/07 03:19:45;;;;;;;;;;;;;;;17.78;57.29;101165.13;5075502;28;3784;-75
2023/06/07 03:22:37;;;;;;;;;;;;;;;17.78;57.04;101161.59;5073702;28;3596;-74
2023/06/07 03:25:29;;;;;;;;;;;;;;;17.76;57.29;101160.97;5078128;28;1526;-76
2023/06/07 03:28:22;;;;;;;;;;;;;;;17.74;56.97;101163.97;5069161;28;1502;-74
2023/06/07 03:31:13;;;;;;;;;;;;;;;17.74;57.08;101169.41;5074632;28;3456;-74
2023/06/07 03:34:05;;;;;;;;;;;;;;;17.71;57.10;101167.19;5072817;28;2132;-73
2023/06/07 03:36:56;;;;;;;;;;;;;;;17.72;56.85;101168.81;5075357;28;2200;-74
2023/06/07 03:39:48;;;;;;;;;;;;;;;17.69;57.07;101172.88;5067990;28;2032;-73
2023/06/07 03:42:40;;;;;;;;;;;;;;;17.68;57.17;101168.53;5072845;28;1889;-74
2023/06/07 03:45:32;;;;;;;;;;;;;;;17.68;57.07;101175.88;5072882;28;1422;-75
2023/06/07 03:48:24;;;;;;;;;;;;;;;17.65;57.07;101171.75;5070780;28;2697;-73
2023/06/07 03:51:16;;;;;;;;;;;;;;;17.64;56.91;101194.59;5078709;28;1458;-75
2023/06/07 03:54:08;;;;;;;;;;;;;;;17.63;56.81;101181.25;5073573;28;1917;-74
2023/06/07 03:57:00;;;;;;;;;;;;;;;17.63;57.00;101170.34;5072311;28;1588;-74
2023/06/07 03:59:52;;;;;;;;;;;;;;;17.61;56.99;101170.59;5072398;28;1938;-74
2023/06/07 04:02:43;;;;;;;;;;;;;;;17.61;56.97;101170.59;5068083;28;2004;-74
2023/06/07 04:05:38;;;;;;;;;;;;;;;17.60;56.76;101173.56;5074654;28;1875;-75
2023/06/07 04:08:30;;;;;;;;;;;;;;;17.58;56.84;101176.53;5076980;28;1427;-74
2023/06/07 04:11:22;;;;;;;;;;;;;;;17.56;56.67;101170.53;5069920;28;1980;-74
2023/06/07 04:14:13;;;;;;;;;;;;;;;17.57;56.76;101168.63;5069627;28;1552;-74
2023/06/07 04:17:06;;;;;;;;;;;;;;;17.56;56.68;101172.41;5069843;28;1809;-74
2023/06/07 04:19:58;;;;;;;;;;;;;;;17.53;56.77;101168.31;5076554;28;2025;-74
2023/06/07 04:22:51;;;;;;;;;;;;;;;17.53;56.62;101165.59;5076919;28;4744;-76
2023/06/07 04:25:43;;;;;;;;;;;;;;;17.52;56.67;101165.84;5081513;28;4578;-73
2023/06/07 04:28:35;;;;;;;;;;;;;;;17.52;56.62;101161.19;5078257;28;4120;-73
2023/06/07 04:31:29;;;;;;;;;;;;;;;17.52;56.63;101168.56;5085072;28;2153;-75
2023/06/07 04:34:21;;;;;;;;;;;;;;;17.49;56.54;101156.25;5084074;28;1702;-74
2023/06/07 04:37:13;;;;;;;;;;;;;;;17.48;56.74;101170.97;5079649;28;1479;-74
2023/06/07 04:40:05;;;;;;;;;;;;;;;17.48;56.71;101170.97;5078061;28;2975;-75
2023/06/07 04:43:04;;;;;;;;;;;;;;;17.46;56.67;101170.38;5083024;28;1502;-75
2023/06/07 04:45:56;;;;;;;;;;;;;;;17.45;56.46;101166.84;5083578;28;1545;-75
2023/06/07 04:48:47;;;;;;;;;;;;;;;17.45;56.42;101166.00;5085164;28;2003;-74
2023/06/07 04:51:40;;;;;;;;;;;;;;;17.45;56.41;101166.84;5079771;28;1781;-76
2023/06/07 04:54:32;;;;;;;;;;;;;;;17.44;56.47;101169.78;5078217;28;1548;-76
2023/06/07 04:57:23;;;;;;;;;;;;;;;17.43;56.47;101166.25;5076621;28;1529;-74
2023/06/07 05:00:16;;;;;;;;;;;;;;;17.43;56.48;101170.88;5075240;28;2181;-75
2023/06/07 05:03:08;;;;;;;;;;;;;;;17.41;56.41;101171.16;5076704;28;2124;-73
2023/06/07 05:06:00;;;;;;;;;;;;;;;17.41;56.41;101171.16;5078867;28;1427;-75
2023/06/07 05:08:51;;;;;;;;;;;;;;;17.39;56.46;101165.13;5078546;28;1925;-75
2023/06/07 05:11:44;;;;;;;;;;;;;;;17.38;56.32;101171.66;5076324;28;2003;-74
2023/06/07 05:14:36;;;;;;;;;;;;;;;17.43;56.24;101166.25;5084248;28;1498;-74
2023/06/07 05:17:28;;;;;;;;;;;;;;;17.40;56.21;101172.19;5084897;28;2143;-73
2023/06/07 05:20:24;;;;;;;;;;;;;;;17.38;56.19;101170.78;5079951;28;2128;-73
2023/06/07 05:23:16;;;;;;;;;;;;;;;17.37;56.16;101172.69;5084454;28;1677;-74
2023/06/07 05:26:08;;;;;;;;;;;;;;;17.36;56.06;101170.25;5083555;28;1947;-75
2023/06/07 05:29:00;;;;;;;;;;;;;;;17.36;56.11;101170.25;5078564;28;2030;-74
2023/06/07 05:31:51;;;;;;;;;;;;;;;17.36;56.22;101173.78;5080005;28;5338;-74
2023/06/07 05:34:45;;;;;;;;;;;;;;;17.35;56.02;101174.84;5079799;28;3954;-73
2023/06/07 05:37:36;;;;;;;;;;;;;;;17.37;56.04;101174.59;5084201;28;3082;-74
2023/06/07 05:40:28;;;;;;;;;;;;;;;17.35;55.93;101168.56;5086933;28;1902;-73
2023/06/07 05:43:20;;;;;;;;;;;;;;;17.35;56.09;101176.75;5081393;28;1533;-74
2023/06/07 05:46:12;;;;;;;;;;;;;;;17.34;56.11;101170.47;5083883;28;2030;-74
2023/06/07 05:49:04;;;;;;;;;;;;;;;17.34;55.95;101172.38;5090172;28;2064;-74
2023/06/07 05:51:56;;;;;;;;;;;;;;;17.34;56.16;101170.47;5074217;28;2021;-73
2023/06/07 05:54:48;;;;;;;;;;;;;;;17.34;55.73;101166.94;5079346;28;1843;-73
2023/06/07 05:57:40;;;;;;;;;;;;;;;17.33;56.07;101173.47;5076651;28;1801;-72
2023/06/07 06:00:33;;;;;;;;;;;;;;;17.34;55.99;101170.47;5072119;28;4192;-73
2023/06/07 06:03:26;;;;;;;;;;;;;;;17.33;55.87;101174.28;5074820;28;1990;-73
2023/06/07 06:06:18;;;;;;;;;;;;;;;17.33;56.08;101174.28;5070906;28;2589;-74
2023/06/07 06:09:10;;;;;;;;;;;;;;;17.32;55.78;101166.34;5073616;28;1881;-74
2023/06/07 06:12:02;;;;;;;;;;;;;;;17.32;55.80;101167.16;5069806;28;1635;-73
2023/06/07 06:14:55;;;;;;;;;;;;;;;17.32;55.94;101172.63;5071583;28;1542;-73
2023/06/07 06:17:48;;;;;;;;;;;;;;;17.32;55.81;101171.78;5079203;28;2566;-74
2023/06/07 06:20:40;;;;;;;;;;;;;;;17.31;55.69;101173.69;5081033;28;2002;-75
2023/06/07 06:23:32;;;;;;;;;;;;;;;17.30;55.92;101169.34;5073622;28;2245;-73
2023/06/07 06:26:25;;;;;;;;;;;;;;;17.31;55.68;101162.81;5073416;28;2431;-73
2023/06/07 06:29:17;;;;;;;;;;;;;;;17.30;55.77;101171.25;5085667;28;1402;-75
2023/06/07 06:32:09;;;;;;;;;;;;;;;17.30;55.68;101163.91;5082129;28;1632;-74
2023/06/07 06:35:01;;;;;;;;;;;;;;;17.30;55.88;101160.34;5073601;28;2107;-74
2023/06/07 06:37:53;;;;;;;;;;;;;;;17.29;55.84;101158.69;5080729;28;1825;-73
2023/06/07 06:40:45;;;;;;;;;;;;;;;17.28;55.88;101155.16;5076074;28;4833;-75
2023/06/07 06:43:37;;;;;;;;;;;;;;;17.29;55.65;101162.22;5082622;28;2014;-75
2023/06/07 06:46:29;;;;;;;;;;;;;;;17.29;55.73;101164.13;5084825;28;4003;-74
2023/06/07 06:49:21;;;;;;;;;;;;;;;17.28;55.79;101163.31;5080110;28;1042;-76
2023/06/07 06:52:13;;;;;;;;;;;;;;;17.28;55.72;101163.31;5085023;28;1361;-74
2023/06/07 06:55:05;;;;;;;;;;;;;;;17.28;55.60;101159.78;5082292;28;2240;-73
2023/06/07 06:57:57;;;;;;;;;;;;;;;17.27;55.62;101161.69;5078446;28;4467;-75
2023/06/07 07:00:49;;;;;;;;;;;;;;;17.29;55.62;101162.22;5064981;28;3963;-74
2023/06/07 07:03:41;;;;;;;;;;;;;;;17.28;55.58;101155.16;5071935;28;2421;-74
2023/06/07 07:06:33;;;;;;;;;;;;;;;17.27;55.42;101163.56;5073288;28;2732;-73
2023/06/07 07:09:25;;;;;;;;;;;;;;;17.28;55.64;101168.75;5075895;28;2396;-73
2023/06/07 07:12:17;;;;;;;;;;;;;;;17.28;55.44;101165.22;5087144;28;2387;-73
2023/06/07 07:15:09;;;;;;;;;;;;;;;17.27;55.61;101161.69;5073944;28;1686;-73
2023/06/07 07:18:02;;;;;;;;;;;;;;;17.27;55.46;101158.94;5072402;28;2315;-74
2023/06/07 07:20:53;;;;;;;;;;;;;;;17.29;55.62;101167.66;5075554;28;2442;-73
2023/06/07 07:23:46;;;;;;;;;;;;;;;16.91;55.43;101098.53;5075788;28;3418;-75
2023/06/07 07:26:39;;;;;;;;;;;;;;;17.28;55.43;101159.78;5075946;28;1561;-76
2023/06/07 07:29:31;;;;;;;;;;;;;;;17.30;55.50;101161.19;5074172;28;2828;-73
2023/06/07 07:32:23;;;;;;;;;;;;;;;17.29;55.45;101159.50;5076633;28;2432;-74
2023/06/07 07:35:15;;;;;;;;;;;;;;;17.30;55.56;101157.63;5076873;28;1588;-75
2023/06/07 07:38:07;;;;;;;;;;;;;;;17.30;55.30;101155.72;5076225;28;1611;-73
2023/06/07 07:40:58;;;;;;;;;;;;;;;17.32;55.45;101152.75;5069841;28;2234;-74
2023/06/07 07:43:51;;;;;;;;;;;;;;;17.31;55.33;101156.56;5075412;28;1573;-75
2023/06/07 07:46:43;;;;;;;;;;;;;;;17.31;55.25;101146.47;5074203;28;1816;-75
2023/06/07 07:49:35;;;;;;;;;;;;;;;17.32;55.40;101150.84;5075631;28;1588;-74
2023/06/07 07:52:27;;;;;;;;;;;;;;;17.33;55.31;101154.41;5072342;28;1992;-75
2023/06/07 07:55:19;;;;;;;;;;;;;;;17.31;55.18;101151.09;5077774;28;1493;-74
2023/06/07 07:58:11;;;;;;;;;;;;;;;17.32;55.40;101150.84;5080276;28;1573;-75
2023/06/07 08:01:03;;;;;;;;;;;;;;;17.34;55.20;101156.88;5075824;28;4807;-74
2023/06/07 08:03:55;;;;;;;;;;;;;;;17.35;55.19;101146.78;5072094;28;3867;-74
2023/06/07 08:06:46;;;;;;;;;;;;;;;17.33;55.11;101148.97;5082096;28;1552;-74
2023/06/07 08:09:38;;;;;;;;;;;;;;;17.36;55.41;101153.91;5084310;28;1676;-74
2023/06/07 08:12:30;;;;;;;;;;;;;;;17.35;55.21;101146.78;5081005;28;2244;-73
2023/06/07 08:15:22;;;;;;;;;;;;;;;17.35;55.12;101146.78;5087431;28;2263;-75
2023/06/07 08:18:14;;;;;;;;;;;;;;;17.35;55.13;101141.34;5088131;28;1138;-74
2023/06/07 08:21:06;;;;;;;;;;;;;;;17.35;55.28;101144.06;5086966;28;3086;-74
2023/06/07 08:23:58;;;;;;;;;;;;;;;17.36;55.26;101145.75;5079381;28;1466;-74
2023/06/07 08:26:50;;;;;;;;;;;;;;;17.37;55.32;101147.38;5080295;28;2043;-74
2023/06/07 08:29:42;;;;;;;;;;;;;;;17.36;55.36;101146.56;5084234;28;2062;-74
2023/06/07 08:32:34;;;;;;;;;;;;;;;17.38;55.43;101143.56;5082243;28;1827;-73
2023/06/07 08:35:26;;;;;;;;;;;;;;;17.38;55.27;101140.84;5090217;28;2198;-74
2023/06/07 08:38:18;;;;;;;;;;;;;;;17.37;55.31;101140.03;5085973;28;1917;-76
2023/06/07 08:41:10;;;;;;;;;;;;;;;17.38;55.28;101140.84;5087331;28;2015;-75
2023/06/07 08:44:02;;;;;;;;;;;;;;;17.38;55.12;101138.13;5089069;28;1533;-73
2023/06/07 08:46:54;;;;;;;;;;;;;;;17.39;55.28;101128.91;5072779;28;4784;-75
2023/06/07 08:49:46;;;;;;;;;;;;;;;17.39;55.33;101129.72;5074767;28;3646;-74
2023/06/07 08:52:38;;;;;;;;;;;;;;;17.41;55.37;101130.31;5085967;28;3283;-74
2023/06/07 08:58:11;;;;;;;;;;;;;;;17.40;55.19;101120.47;5321505;22;2346;-75
2023/06/07 09:00:37;;;;;;;;;;;;;;;17.41;55.24;101122.13;5060887;28;1574;-74
2023/06/07 09:03:05;;;;;;;;;;;;;;;17.41;55.29;101111.25;5051085;28;1971;-75
2023/06/07 09:05:32;;;;;;;;;;;;;;;17.41;55.34;101113.13;5052495;28;1511;-74
2023/06/07 09:07:58;;;;;;;;;;;;;;;17.42;55.17;101112.88;5055176;28;1577;-74
2023/06/07 09:10:25;;;;;;;;;;;;;;;17.43;55.28;101110.97;5059889;28;1511;-75
2023/06/07 09:12:51;;;;;;;;;;;;;;;17.42;55.16;101103.91;5056482;28;1068;-75
2023/06/07 09:15:19;;;;;;;;;;;;;;;17.44;55.31;101115.34;5059199;28;1277;-76
2023/06/07 09:17:45;;;;;;;;;;;;;;;17.44;55.27;101109.88;5044169;28;1843;-74
2023/06/07 09:20:12;;;;;;;;;;;;;;;17.44;55.37;101104.44;5048624;28;1552;-74
2023/06/07 09:22:38;;;;;;;;;;;;;;;17.45;55.31;101103.38;5060735;28;1963;-74
2023/06/07 09:25:05;;;;;;;;;;;;;;;17.45;55.40;101101.47;5062472;28;1398;-74
2023/06/07 09:27:31;;;;;;;;;;;;;;;17.46;55.28;101108.56;5056429;28;1180;-74
2023/06/07 09:29:58;;;;;;;;;;;;;;;17.45;55.39;101096.03;5057964;28;1518;-74
2023/06/07 09:32:25;;;;;;;;;;;;;;;17.46;55.14;101099.59;5046910;28;1211;-74
2023/06/07 09:34:53;;;;;;;;;;;;;;;17.46;55.43;101097.69;5046920;28;1279;-74
2023/06/07 09:37:20;;;;;;;;;;;;;;;17.47;55.28;101093.91;5051674;28;1620;-74
2023/06/07 09:39:47;;;;;;;;;;;;;;;17.48;55.37;101092.81;5059480;28;1499;-74
2023/06/07 09:42:13;;;;;;;;;;;;;;;17.48;55.38;101092.81;5059809;28;1975;-75
2023/06/07 09:44:40;;;;;;;;;;;;;;;17.48;55.48;101084.66;5058308;28;1422;-74
2023/06/07 09:47:07;;;;;;;;;;;;;;;17.49;55.61;101089.00;5058744;28;1089;-73
2023/06/07 09:49:34;;;;;;;;;;;;;;;17.50;55.45;101084.41;5057633;28;1467;-76
2023/06/07 09:52:01;;;;;;;;;;;;;;;17.48;55.63;101089.28;5058613;28;1304;-75
2023/06/07 09:54:27;;;;;;;;;;;;;;;17.50;55.60;101084.41;5060732;28;1379;-75
2023/06/07 09:56:59;;;;;;;;;;;;;;;17.51;55.74;101079.78;5055028;28;1394;-73
2023/06/07 09:59:25;;;;;;;;;;;;;;;17.49;55.59;101075.38;5045984;28;1479;-74
2023/06/07 10:01:52;;;;;;;;;;;;;;;17.46;55.17;101083.25;5045537;28;1914;-74
2023/06/07 10:04:19;;;;;;;;;;;;;;;17.51;55.13;101085.22;5045382;28;1228;-74
2023/06/07 10:06:47;;;;;;;;;;;;;;;17.52;55.46;101068.63;5046684;28;1260;-75
2023/06/07 10:09:14;;;;;;;;;;;;;;;17.54;55.64;101071.09;5045509;28;1497;-75
2023/06/07 10:11:40;;;;;;;;;;;;;;;17.55;55.60;101084.44;5042389;28;1564;-73
2023/06/07 10:14:07;;;;;;;;;;;;;;;17.55;55.80;101075.47;5044703;28;1262;-74
2023/06/07 10:16:33;;;;;;;;;;;;;;;17.56;55.76;101071.66;5044624;28;1290;-74
2023/06/07 10:19:00;;;;;;;;;;;;;;;17.57;55.71;101065.16;5045874;28;1455;-74
2023/06/07 10:21:26;;;;;;;;;;;;;;;17.57;55.52;101071.41;5050112;28;1906;-75
2023/06/07 10:23:53;;;;;;;;;;;;;;;17.58;55.73;101069.50;5048147;28;1515;-73
2023/06/07 10:26:20;;;;;;;;;;;;;;;17.58;55.76;101069.50;5050136;28;1070;-74
2023/06/07 10:28:47;;;;;;;;;;;;;;;17.59;55.92;101063.81;5046350;28;1440;-74
2023/06/07 10:31:13;;;;;;;;;;;;;;;17.60;55.75;101062.72;5050475;28;1228;-74
2023/06/07 10:33:40;;;;;;;;;;;;;;;17.62;55.82;101062.50;5048857;28;1184;-74
2023/06/07 10:36:07;;;;;;;;;;;;;;;17.61;55.95;101058.09;5045631;28;1151;-74
2023/06/07 10:38:34;;;;;;;;;;;;;;;17.62;56.07;101052.41;5041558;28;1489;-74
2023/06/07 10:41:01;;;;;;;;;;;;;;;17.62;55.87;101062.50;5047940;28;1039;-74
2023/06/07 10:43:28;;;;;;;;;;;;;;;17.64;55.78;101057.59;5049668;28;2003;-73
2023/06/07 10:45:54;;;;;;;;;;;;;;;17.64;56.07;101060.31;5050543;28;1222;-73
2023/06/07 10:48:21;;;;;;;;;;;;;;;17.64;55.90;101052.13;5042431;28;1519;-73
2023/06/07 10:50:48;;;;;;;;;;;;;;;17.65;56.03;101051.91;5046968;28;1566;-75
2023/06/07 10:53:14;;;;;;;;;;;;;;;17.32;55.93;100998.38;5042653;28;1156;-76
2023/06/07 10:55:41;;;;;;;;;;;;;;;17.64;55.84;101052.13;5051004;28;1158;-73
2023/06/07 10:58:09;;;;;;;;;;;;;;;17.68;55.79;101047.84;5049968;28;1368;-73
2023/06/07 11:00:38;;;;;;;;;;;;;;;17.67;55.79;101041.56;5048674;28;1523;-76
2023/06/07 11:03:05;;;;;;;;;;;;;;;17.69;55.99;101044.84;5050188;28;1910;-75
2023/06/07 11:05:32;;;;;;;;;;;;;;;17.71;55.85;101041.91;5050031;28;1269;-75
2023/06/07 11:07:59;;;;;;;;;;;;;;;17.69;55.82;101033.97;5047289;28;1295;-74
2023/06/07 11:10:25;;;;;;;;;;;;;;;17.70;55.96;101035.59;5048943;28;1514;-74
2023/06/07 11:12:52;;;;;;;;;;;;;;;17.70;55.99;101040.22;5047005;28;1249;-76
2023/06/07 11:15:20;;;;;;;;;;;;;;;17.69;55.86;101039.41;5046815;28;1174;-75
2023/06/07 11:17:46;;;;;;;;;;;;;;;17.73;55.94;101034.25;5045142;28;1086;-74
2023/06/07 11:20:13;;;;;;;;;;;;;;;17.74;56.05;101040.56;5042560;28;1511;-75
2023/06/07 11:22:41;;;;;;;;;;;;;;;17.76;55.92;101039.19;5049969;28;1969;-76
2023/06/07 11:25:09;;;;;;;;;;;;;;;17.78;56.12;101044.44;5049316;28;1677;-74
2023/06/07 11:27:36;;;;;;;;;;;;;;;17.79;56.00;101044.16;5047297;28;1455;-73
2023/06/07 11:30:02;;;;;;;;;;;;;;;17.78;56.16;101036.28;5049500;28;1404;-74
2023/06/07 11:32:29;;;;;;;;;;;;;;;17.80;56.04;101036.84;5051663;28;1372;-73
2023/06/07 11:34:56;;;;;;;;;;;;;;;17.79;56.11;101043.34;5050919;28;1426;-72
2023/06/07 11:37:24;;;;;;;;;;;;;;;17.80;56.00;101043.09;5046407;28;1839;-75
2023/06/07 11:39:50;;;;;;;;;;;;;;;17.82;56.14;101042.84;5046151;28;1725;-73
2023/06/07 11:42:17;;;;;;;;;;;;;;;17.82;56.14;101042.84;5053137;28;1914;-74
2023/06/07 11:44:43;;;;;;;;;;;;;;;17.84;55.94;101046.13;5049139;28;1231;-74
2023/06/07 11:47:10;;;;;;;;;;;;;;;17.85;55.98;101043.19;5048128;28;1499;-74
2023/06/07 11:49:40;;;;;;;;;;;;;;;17.87;56.15;101037.44;5048276;28;1285;-74
2023/06/07 11:52:07;;;;;;;;;;;;;;;17.87;56.33;101043.72;5045893;28;1217;-74
2023/06/07 11:54:34;;;;;;;;;;;;;;;17.89;56.39;101044.28;5048916;28;1300;-74
2023/06/07 11:57:06;;;;;;;;;;;;;;;17.91;56.14;101038.56;5044116;28;1472;-72
2023/06/07 11:59:33;;;;;;;;;;;;;;;17.91;56.21;101036.69;5046507;28;1250;-75
2023/06/07 12:01:59;;;;;;;;;;;;;;;17.90;56.32;101031.50;5052659;28;1971;-74
2023/06/07 12:04:26;;;;;;;;;;;;;;;17.91;56.26;101022.22;5052695;28;1192;-76
2023/06/07 12:06:56;;;;;;;;;;;;;;;17.91;56.32;101024.94;5045528;28;1510;-73
2023/06/07 12:09:23;;;;;;;;;;;;;;;17.91;56.09;101024.94;5051680;28;1227;-74
2023/06/07 12:11:49;;;;;;;;;;;;;;;17.95;56.34;101031.53;5048514;28;1222;-73
2023/06/07 12:14:16;;;;;;;;;;;;;;;17.97;56.18;101028.56;5048875;28;1183;-73
2023/06/07 12:16:42;;;;;;;;;;;;;;;17.97;56.48;101031.28;5049619;28;1112;-74
2023/06/07 12:19:09;;;;;;;;;;;;;;;17.98;56.35;101024.75;5044685;28;1702;-74
2023/06/07 12:21:36;;;;;;;;;;;;;;;17.97;56.48;101023.09;5049334;28;1267;-74
2023/06/07 12:24:03;;;;;;;;;;;;;;;17.96;56.26;101022.28;5049271;28;1958;-73
2023/06/07 12:26:30;;;;;;;;;;;;;;;17.98;56.36;101020.13;5047883;28;1065;-75
2023/06/07 12:28:57;;;;;;;;;;;;;;;18.00;56.22;101028.03;5048079;28;1638;-74
2023/06/07 12:31:24;;;;;;;;;;;;;;;18.04;56.47;101021.00;5049364;28;1177;-75
2023/06/07 12:33:50;;;;;;;;;;;;;;;17.68;56.44;100957.97;5050377;28;1295;-74
2023/06/07 12:36:17;;;;;;;;;;;;;;;18.05;56.40;101019.91;5051673;28;1325;-74
2023/06/07 12:38:43;;;;;;;;;;;;;;;18.08;56.26;101017.50;5041177;28;1507;-73
2023/06/07 12:41:10;;;;;;;;;;;;;;;18.08;56.57;101012.03;5058974;28;1313;-74
2023/06/07 12:43:37;;;;;;;;;;;;;;;18.11;56.35;101021.59;5049969;28;2260;-74
2023/06/07 12:46:03;;;;;;;;;;;;;;;18.11;56.32;101008.78;5047634;28;1135;-74
2023/06/07 12:48:30;;;;;;;;;;;;;;;18.13;56.46;101006.63;5043344;28;1488;-73
2023/06/07 12:50:57;;;;;;;;;;;;;;;18.12;56.52;101006.91;5051528;28;1211;-74
2023/06/07 12:53:23;;;;;;;;;;;;;;;18.13;56.57;101009.38;5047616;28;1084;-73
2023/06/07 12:55:50;;;;;;;;;;;;;;;18.15;56.51;101000.94;5044770;28;1231;-74
2023/06/07 12:58:16;;;;;;;;;;;;;;;18.17;56.75;101002.31;5046386;28;1506;-74
2023/06/07 13:00:43;;;;;;;;;;;;;;;18.18;56.64;100997.69;5047274;28;1400;-74
2023/06/07 13:03:10;;;;;;;;;;;;;;;18.21;56.59;101002.63;5043450;28;1980;-74
2023/06/07 13:05:37;;;;;;;;;;;;;;;18.20;56.61;101002.88;5051638;28;1275;-75
2023/06/07 13:08:03;;;;;;;;;;;;;;;18.23;56.59;100988.72;5049177;28;1526;-74
2023/06/07 13:10:30;;;;;;;;;;;;;;;18.25;56.67;101002.94;5052345;28;1132;-74
2023/06/07 13:12:57;;;;;;;;;;;;;;;18.27;56.84;101004.31;5046441;28;1270;-75
2023/06/07 13:15:24;;;;;;;;;;;;;;;18.29;56.78;100995.88;5047726;28;1407;-75
2023/06/07 13:17:51;;;;;;;;;;;;;;;18.29;56.73;100993.94;5046317;28;1274;-74
2023/06/07 13:20:17;;;;;;;;;;;;;;;18.29;56.87;100988.50;5047211;28;1233;-74
2023/06/07 13:22:44;;;;;;;;;;;;;;;18.32;57.00;100987.16;5047634;28;1930;-74
2023/06/07 13:25:10;;;;;;;;;;;;;;;18.33;56.65;100984.19;5048048;28;1116;-74
2023/06/07 13:27:37;;;;;;;;;;;;;;;18.35;56.62;100968.41;5046775;28;1471;-74
2023/06/07 13:30:05;;;;;;;;;;;;;;;18.33;56.85;100967.00;5048501;28;1400;-75
2023/06/07 13:32:31;;;;;;;;;;;;;;;18.34;57.07;100974.91;5043970;28;1163;-74
2023/06/07 13:34:58;;;;;;;;;;;;;;;18.34;56.86;100979.56;5046558;28;1315;-74
2023/06/07 13:37:25;;;;;;;;;;;;;;;18.38;56.60;100976.06;5044132;28;1511;-74
2023/06/07 13:39:51;;;;;;;;;;;;;;;18.42;56.68;100975.53;5048774;28;1129;-74
2023/06/07 13:42:21;;;;;;;;;;;;;;;18.41;56.77;100962.97;5050304;28;1968;-74
2023/06/07 13:44:48;;;;;;;;;;;;;;;18.41;56.84;100971.94;5047189;28;1247;-74
2023/06/07 13:50:06;;;;;;;;;;;;;;;18.48;56.90;100958.94;5044296;28;1465;-73
2023/06/07 13:52:32;;;;;;;;;;;;;;;18.49;56.77;100960.56;5047138;28;1152;-75
2023/06/07 13:54:59;;;;;;;;;;;;;;;18.52;57.03;100953.78;5046378;28;1247;-73
2023/06/07 13:57:26;;;;;;;;;;;;;;;18.50;57.18;100948.59;5044832;28;1601;-74
2023/06/07 13:59:53;;;;;;;;;;;;;;;18.49;57.09;100946.94;5045989;28;1420;-73
2023/06/07 14:02:20;;;;;;;;;;;;;;;18.51;56.58;100952.13;5046165;28;1906;-73
2023/06/07 14:04:48;;;;;;;;;;;;;;;18.55;56.75;100947.78;5046640;28;1181;-73
2023/06/07 14:10:05;;;;;;;;;;;;;;;18.56;57.02;100933.91;5050987;28;1512;-75
2023/06/07 14:12:32;;;;;;;;;;;;;;;18.60;56.97;100931.47;5047229;28;1689;-75